sensor_id;sensor_type;location;lat;lon;timestamp;temperature;humidity
44509;DHT22;30214;52.246;14.408;2023-10-13T00:01:20;12.80;99.90
44509;DHT22;30214;52.246;14.408;2023-10-13T00:03:47;12.90;99.90
44509;DHT22;30214;52.246;14.408;2023-10-13T00:06:14;12.90;99.90
44509;DHT22;30214;52.246;14.408;2023-10-13T00:08:43;12.90;99.90
44509;DHT22;30214;52.246;14.408;2023-10-13T00:11:12;12.90;99.90
44509;DHT22;30214;52.246;14.408;2023-10-13T00:13:39;12.90;99.90
44509;DHT22;30214;52.246;14.408;2023-10-13T00:16:15;12.90;99.90
44509;DHT22;30214;52.246;14.408;2023-10-13T00:18:47;13.00;99.90
44509;DHT22;30214;52.246;14.408;2023-10-13T00:21:14;13.00;99.90
44509;DHT22;30214;52.246;14.408;2023-10-13T00:23:47;12.90;99.90
44509;DHT22;30214;52.246;14.408;2023-10-13T00:26:20;13.00;99.90
44509;DHT22;30214;52.246;14.408;2023-10-13T00:28:52;13.00;99.90
44509;DHT22;30214;52.246;14.408;2023-10-13T00:31:35;12.90;99.90
44509;DHT22;30214;52.246;14.408;2023-10-13T00:34:04;12.90;99.90
44509;DHT22;30214;52.246;14.408;2023-10-13T00:36:44;12.90;99.90
44509;DHT22;30214;52.246;14.408;2023-10-13T00:39:16;13.00;99.90
44509;DHT22;30214;52.246;14.408;2023-10-13T00:41:44;13.00;99.90
44509;DHT22;30214;52.246;14.408;2023-10-13T00:44:21;12.90;99.90
44509;DHT22;30214;52.246;14.408;2023-10-13T00:46:56;12.90;99.90
44509;DHT22;30214;52.246;14.408;2023-10-13T00:49:26;12.80;99.90
44509;DHT22;30214;52.246;14.408;2023-10-13T00:51:59;12.80;99.90
44509;DHT22;30214;52.246;14.408;2023-10-13T00:54:29;12.80;99.90
44509;DHT22;30214;52.246;14.408;2023-10-13T00:56:58;12.80;99.90
44509;DHT22;30214;52.246;14.408;2023-10-13T00:59:32;12.80;99.90
44509;DHT22;30214;52.246;14.408;2023-10-13T01:02:11;12.70;99.90
44509;DHT22;30214;52.246;14.408;2023-10-13T01:05:04;12.70;99.90
44509;DHT22;30214;52.246;14.408;2023-10-13T01:07:36;12.70;99.90
44509;DHT22;30214;52.246;14.408;2023-10-13T01:10:09;12.70;99.90
44509;DHT22;30214;52.246;14.408;2023-10-13T01:12:39;12.80;99.90
44509;DHT22;30214;52.246;14.408;2023-10-13T01:15:10;12.80;99.90
44509;DHT22;30214;52.246;14.408;2023-10-13T01:17:42;12.90;99.90
44509;DHT22;30214;52.246;14.408;2023-10-13T01:20:15;13.00;99.90
44509;DHT22;30214;52.246;14.408;2023-10-13T01:22:50;12.90;99.90
44509;DHT22;30214;52.246;14.408;2023-10-13T01:25:27;12.90;99.90
44509;DHT22;30214;52.246;14.408;2023-10-13T01:27:57;13.00;99.90
44509;DHT22;30214;52.246;14.408;2023-10-13T01:30:26;12.90;99.90
44509;DHT22;30214;52.246;14.408;2023-10-13T01:32:55;12.90;99.90
44509;DHT22;30214;52.246;14.408;2023-10-13T01:35:26;12.90;99.90
44509;DHT22;30214;52.246;14.408;2023-10-13T01:38:03;13.00;99.90
44509;DHT22;30214;52.246;14.408;2023-10-13T01:40:31;13.00;99.90
44509;DHT22;30214;52.246;14.408;2023-10-13T01:43:01;13.00;99.90
44509;DHT22;30214;52.246;14.408;2023-10-13T01:45:32;13.00;99.90
44509;DHT22;30214;52.246;14.408;2023-10-13T01:47:58;13.00;99.90
44509;DHT22;30214;52.246;14.408;2023-10-13T01:50:29;13.00;99.90
44509;DHT22;30214;52.246;14.408;2023-10-13T01:52:56;13.00;99.90
44509;DHT22;30214;52.246;14.408;2023-10-13T01:55:40;13.00;99.90
44509;DHT22;30214;52.246;14.408;2023-10-13T01:58:10;13.00;99.90
44509;DHT22;30214;52.246;14.408;2023-10-13T02:00:42;12.90;99.90
44509;DHT22;30214;52.246;14.408;2023-10-13T02:03:11;13.00;99.90
44509;DHT22;30214;52.246;14.408;2023-10-13T02:05:43;13.10;99.90
44509;DHT22;30214;52.246;14.408;2023-10-13T02:08:14;12.90;99.90
44509;DHT22;30214;52.246;14.408;2023-10-13T02:10:51;12.90;99.90
44509;DHT22;30214;52.246;14.408;2023-10-13T02:13:19;12.90;99.90
44509;DHT22;30214;52.246;14.408;2023-10-13T02:15:54;12.90;99.90
44509;DHT22;30214;52.246;14.408;2023-10-13T02:18:24;12.90;99.90
44509;DHT22;30214;52.246;14.408;2023-10-13T02:21:04;12.90;99.90
44509;DHT22;30214;52.246;14.408;2023-10-13T02:23:31;12.90;99.90
44509;DHT22;30214;52.246;14.408;2023-10-13T02:26:01;12.90;99.90
44509;DHT22;30214;52.246;14.408;2023-10-13T02:28:29;12.80;99.90
44509;DHT22;30214;52.246;14.408;2023-10-13T02:31:02;12.80;99.90
44509;DHT22;30214;52.246;14.408;2023-10-13T02:33:29;12.80;99.90
44509;DHT22;30214;52.246;14.408;2023-10-13T02:35:56;12.90;99.90
44509;DHT22;30214;52.246;14.408;2023-10-13T02:38:25;12.80;99.90
44509;DHT22;30214;52.246;14.408;2023-10-13T02:40:58;12.90;99.90
44509;DHT22;30214;52.246;14.408;2023-10-13T02:43:33;12.80;99.90
44509;DHT22;30214;52.246;14.408;2023-10-13T02:45:59;12.90;99.90
44509;DHT22;30214;52.246;14.408;2023-10-13T02:48:27;12.90;99.90
44509;DHT22;30214;52.246;14.408;2023-10-13T02:50:58;12.80;99.90
44509;DHT22;30214;52.246;14.408;2023-10-13T02:53:31;12.80;99.90
44509;DHT22;30214;52.246;14.408;2023-10-13T02:55:56;12.80;99.90
44509;DHT22;30214;52.246;14.408;2023-10-13T02:58:33;12.90;99.90
44509;DHT22;30214;52.246;14.408;2023-10-13T03:01:06;12.80;99.90
44509;DHT22;30214;52.246;14.408;2023-10-13T03:03:43;12.80;99.90
44509;DHT22;30214;52.246;14.408;2023-10-13T03:06:14;12.80;99.90
44509;DHT22;30214;52.246;14.408;2023-10-13T03:08:41;12.80;99.90
44509;DHT22;30214;52.246;14.408;2023-10-13T03:11:09;12.80;99.90
44509;DHT22;30214;52.246;14.408;2023-10-13T03:13:38;12.80;99.90
44509;DHT22;30214;52.246;14.408;2023-10-13T03:16:13;12.80;99.90
44509;DHT22;30214;52.246;14.408;2023-10-13T03:18:43;12.80;99.90
44509;DHT22;30214;52.246;14.408;2023-10-13T03:21:20;12.80;99.90
44509;DHT22;30214;52.246;14.408;2023-10-13T03:23:59;12.90;99.90
44509;DHT22;30214;52.246;14.408;2023-10-13T03:26:31;12.90;99.90
44509;DHT22;30214;52.246;14.408;2023-10-13T03:29:04;12.90;99.90
44509;DHT22;30214;52.246;14.408;2023-10-13T03:31:38;12.90;99.90
44509;DHT22;30214;52.246;14.408;2023-10-13T03:34:05;12.90;99.90
44509;DHT22;30214;52.246;14.408;2023-10-13T03:36:36;12.90;99.90
44509;DHT22;30214;52.246;14.408;2023-10-13T03:39:20;12.90;99.90
44509;DHT22;30214;52.246;14.408;2023-10-13T03:41:53;12.90;99.90
44509;DHT22;30214;52.246;14.408;2023-10-13T03:44:21;12.90;99.90
44509;DHT22;30214;52.246;14.408;2023-10-13T03:46:49;12.90;99.90
44509;DHT22;30214;52.246;14.408;2023-10-13T03:49:19;12.90;99.90
44509;DHT22;30214;52.246;14.408;2023-10-13T03:51:48;12.90;99.90
44509;DHT22;30214;52.246;14.408;2023-10-13T03:54:16;12.90;99.90
44509;DHT22;30214;52.246;14.408;2023-10-13T03:56:44;12.90;99.90
44509;DHT22;30214;52.246;14.408;2023-10-13T03:59:11;12.90;99.90
44509;DHT22;30214;52.246;14.408;2023-10-13T04:01:46;12.90;99.90
44509;DHT22;30214;52.246;14.408;2023-10-13T04:04:24;12.90;99.90
44509;DHT22;30214;52.246;14.408;2023-10-13T04:07:00;13.00;99.90
44509;DHT22;30214;52.246;14.408;2023-10-13T04:10:00;13.00;99.90
44509;DHT22;30214;52.246;14.408;2023-10-13T04:12:45;13.00;99.90
44509;DHT22;30214;52.246;14.408;2023-10-13T04:15:29;13.00;99.90
44509;DHT22;30214;52.246;14.408;2023-10-13T04:18:09;13.10;99.90
44509;DHT22;30214;52.246;14.408;2023-10-13T04:20:56;13.10;99.90
44509;DHT22;30214;52.246;14.408;2023-10-13T04:23:33;13.10;99.90
44509;DHT22;30214;52.246;14.408;2023-10-13T04:26:20;13.10;99.90
44509;DHT22;30214;52.246;14.408;2023-10-13T04:28:48;13.10;99.90
44509;DHT22;30214;52.246;14.408;2023-10-13T04:31:16;13.10;99.90
44509;DHT22;30214;52.246;14.408;2023-10-13T04:34:08;13.20;99.90
44509;DHT22;30214;52.246;14.408;2023-10-13T04:36:45;13.20;99.90
44509;DHT22;30214;52.246;14.408;2023-10-13T04:39:11;13.20;99.90
44509;DHT22;30214;52.246;14.408;2023-10-13T04:41:55;13.30;99.90
44509;DHT22;30214;52.246;14.408;2023-10-13T04:44:24;13.30;99.90
44509;DHT22;30214;52.246;14.408;2023-10-13T04:47:09;13.30;99.90
44509;DHT22;30214;52.246;14.408;2023-10-13T04:49:44;13.40;99.90
44509;DHT22;30214;52.246;14.408;2023-10-13T04:52:19;13.30;99.90
44509;DHT22;30214;52.246;14.408;2023-10-13T04:55:05;13.30;99.90
44509;DHT22;30214;52.246;14.408;2023-10-13T04:58:09;13.30;99.90
44509;DHT22;30214;52.246;14.408;2023-10-13T05:00:40;13.30;99.90
44509;DHT22;30214;52.246;14.408;2023-10-13T05:03:42;13.30;99.90
44509;DHT22;30214;52.246;14.408;2023-10-13T05:06:48;13.30;99.90
44509;DHT22;30214;52.246;14.408;2023-10-13T05:09:33;13.30;99.90
44509;DHT22;30214;52.246;14.408;2023-10-13T05:12:16;13.40;99.90
44509;DHT22;30214;52.246;14.408;2023-10-13T05:15:01;13.40;99.90
44509;DHT22;30214;52.246;14.408;2023-10-13T05:17:45;13.40;99.90
44509;DHT22;30214;52.246;14.408;2023-10-13T05:20:30;13.50;99.90
44509;DHT22;30214;52.246;14.408;2023-10-13T05:23:16;13.50;99.90
44509;DHT22;30214;52.246;14.408;2023-10-13T05:26:01;13.40;99.90
44509;DHT22;30214;52.246;14.408;2023-10-13T05:28:46;13.40;99.90
44509;DHT22;30214;52.246;14.408;2023-10-13T05:31:30;13.50;99.90
44509;DHT22;30214;52.246;14.408;2023-10-13T05:34:14;13.50;99.90
44509;DHT22;30214;52.246;14.408;2023-10-13T05:36:59;13.60;99.90
44509;DHT22;30214;52.246;14.408;2023-10-13T05:39:45;13.60;99.90
44509;DHT22;30214;52.246;14.408;2023-10-13T05:42:29;13.60;99.90
44509;DHT22;30214;52.246;14.408;2023-10-13T05:45:13;13.60;99.90
44509;DHT22;30214;52.246;14.408;2023-10-13T05:48:19;13.60;99.90
44509;DHT22;30214;52.246;14.408;2023-10-13T05:51:00;13.70;99.90
44509;DHT22;30214;52.246;14.408;2023-10-13T05:53:41;13.80;99.90
44509;DHT22;30214;52.246;14.408;2023-10-13T05:56:26;13.80;99.90
44509;DHT22;30214;52.246;14.408;2023-10-13T05:59:11;13.90;99.90
44509;DHT22;30214;52.246;14.408;2023-10-13T06:01:55;13.80;99.90
44509;DHT22;30214;52.246;14.408;2023-10-13T06:04:40;13.80;99.90
44509;DHT22;30214;52.246;14.408;2023-10-13T06:07:24;13.90;99.90
44509;DHT22;30214;52.246;14.408;2023-10-13T06:10:12;13.90;99.90
44509;DHT22;30214;52.246;14.408;2023-10-13T06:12:57;14.00;99.90
44509;DHT22;30214;52.246;14.408;2023-10-13T06:15:42;14.00;99.90
44509;DHT22;30214;52.246;14.408;2023-10-13T06:18:26;14.00;99.90
44509;DHT22;30214;52.246;14.408;2023-10-13T06:21:10;14.00;99.90
44509;DHT22;30214;52.246;14.408;2023-10-13T06:23:55;14.00;99.90
44509;DHT22;30214;52.246;14.408;2023-10-13T06:26:39;14.00;99.90
44509;DHT22;30214;52.246;14.408;2023-10-13T06:29:25;14.20;99.90
44509;DHT22;30214;52.246;14.408;2023-10-13T06:31:52;14.30;99.90
44509;DHT22;30214;52.246;14.408;2023-10-13T06:34:22;14.30;99.90
44509;DHT22;30214;52.246;14.408;2023-10-13T06:37:04;14.40;99.90
44509;DHT22;30214;52.246;14.408;2023-10-13T06:39:47;14.40;99.90
44509;DHT22;30214;52.246;14.408;2023-10-13T06:42:14;14.50;99.90
44509;DHT22;30214;52.246;14.408;2023-10-13T06:44:43;14.60;99.90
44509;DHT22;30214;52.246;14.408;2023-10-13T06:47:12;14.70;99.90
44509;DHT22;30214;52.246;14.408;2023-10-13T06:49:39;14.70;99.90
44509;DHT22;30214;52.246;14.408;2023-10-13T06:52:09;14.90;99.90
44509;DHT22;30214;52.246;14.408;2023-10-13T06:54:36;15.00;99.90
44509;DHT22;30214;52.246;14.408;2023-10-13T06:57:04;15.00;99.90
44509;DHT22;30214;52.246;14.408;2023-10-13T06:59:32;15.10;99.90
44509;DHT22;30214;52.246;14.408;2023-10-13T07:02:03;15.20;99.90
44509;DHT22;30214;52.246;14.408;2023-10-13T07:04:33;15.30;99.90
44509;DHT22;30214;52.246;14.408;2023-10-13T07:07:00;15.40;99.90
44509;DHT22;30214;52.246;14.408;2023-10-13T07:09:27;15.50;99.90
44509;DHT22;30214;52.246;14.408;2023-10-13T07:12:11;15.60;99.90
44509;DHT22;30214;52.246;14.408;2023-10-13T07:14:46;15.60;99.90
44509;DHT22;30214;52.246;14.408;2023-10-13T07:17:19;15.70;99.90
44509;DHT22;30214;52.246;14.408;2023-10-13T07:19:53;15.80;99.90
44509;DHT22;30214;52.246;14.408;2023-10-13T07:22:22;15.90;99.90
44509;DHT22;30214;52.246;14.408;2023-10-13T07:24:51;16.00;99.90
44509;DHT22;30214;52.246;14.408;2023-10-13T07:27:18;16.10;99.90
44509;DHT22;30214;52.246;14.408;2023-10-13T07:29:50;16.10;99.90
44509;DHT22;30214;52.246;14.408;2023-10-13T07:32:32;16.20;99.90
44509;DHT22;30214;52.246;14.408;2023-10-13T07:35:00;16.30;99.90
44509;DHT22;30214;52.246;14.408;2023-10-13T07:37:37;16.40;99.90
44509;DHT22;30214;52.246;14.408;2023-10-13T07:40:07;16.50;99.90
44509;DHT22;30214;52.246;14.408;2023-10-13T07:42:48;16.60;99.90
44509;DHT22;30214;52.246;14.408;2023-10-13T07:45:15;16.60;99.90
44509;DHT22;30214;52.246;14.408;2023-10-13T07:47:51;16.50;99.90
44509;DHT22;30214;52.246;14.408;2023-10-13T07:50:18;16.50;99.90
44509;DHT22;30214;52.246;14.408;2023-10-13T07:52:50;16.50;99.90
44509;DHT22;30214;52.246;14.408;2023-10-13T07:55:24;16.60;99.90
44509;DHT22;30214;52.246;14.408;2023-10-13T07:57:51;16.70;99.90
44509;DHT22;30214;52.246;14.408;2023-10-13T08:00:23;16.80;99.90
44509;DHT22;30214;52.246;14.408;2023-10-13T08:03:00;16.80;99.90
44509;DHT22;30214;52.246;14.408;2023-10-13T08:05:51;16.80;99.90
44509;DHT22;30214;52.246;14.408;2023-10-13T08:08:23;17.00;99.90
44509;DHT22;30214;52.246;14.408;2023-10-13T08:10:51;17.20;99.90
44509;DHT22;30214;52.246;14.408;2023-10-13T08:13:21;17.40;99.90
44509;DHT22;30214;52.246;14.408;2023-10-13T08:15:49;17.50;99.90
44509;DHT22;30214;52.246;14.408;2023-10-13T08:18:19;17.50;99.90
44509;DHT22;30214;52.246;14.408;2023-10-13T08:20:56;17.50;99.90
44509;DHT22;30214;52.246;14.408;2023-10-13T08:23:28;17.50;99.90
44509;DHT22;30214;52.246;14.408;2023-10-13T08:26:21;17.60;99.90
44509;DHT22;30214;52.246;14.408;2023-10-13T08:29:17;17.90;99.90
44509;DHT22;30214;52.246;14.408;2023-10-13T08:31:58;18.00;99.90
44509;DHT22;30214;52.246;14.408;2023-10-13T08:34:49;18.10;99.90
44509;DHT22;30214;52.246;14.408;2023-10-13T08:37:34;18.10;99.90
44509;DHT22;30214;52.246;14.408;2023-10-13T08:40:13;18.10;99.90
44509;DHT22;30214;52.246;14.408;2023-10-13T08:43:24;18.10;99.90
44509;DHT22;30214;52.246;14.408;2023-10-13T08:46:01;18.20;99.90
44509;DHT22;30214;52.246;14.408;2023-10-13T08:48:32;18.20;99.90
44509;DHT22;30214;52.246;14.408;2023-10-13T08:51:02;18.20;99.90
44509;DHT22;30214;52.246;14.408;2023-10-13T08:53:37;18.20;99.90
44509;DHT22;30214;52.246;14.408;2023-10-13T08:56:17;18.20;99.90
44509;DHT22;30214;52.246;14.408;2023-10-13T08:58:45;18.30;99.90
44509;DHT22;30214;52.246;14.408;2023-10-13T09:01:31;18.40;99.90
44509;DHT22;30214;52.246;14.408;2023-10-13T09:04:12;18.40;99.90
44509;DHT22;30214;52.246;14.408;2023-10-13T09:06:50;18.40;99.90
44509;DHT22;30214;52.246;14.408;2023-10-13T09:09:43;18.50;99.90
44509;DHT22;30214;52.246;14.408;2023-10-13T09:12:27;18.60;99.90
44509;DHT22;30214;52.246;14.408;2023-10-13T09:15:06;18.70;99.90
44509;DHT22;30214;52.246;14.408;2023-10-13T09:17:46;18.70;99.90
44509;DHT22;30214;52.246;14.408;2023-10-13T09:20:28;18.70;99.90
44509;DHT22;30214;52.246;14.408;2023-10-13T09:23:11;18.70;99.90
44509;DHT22;30214;52.246;14.408;2023-10-13T09:25:45;18.70;99.90
44509;DHT22;30214;52.246;14.408;2023-10-13T09:28:20;18.60;99.90
44509;DHT22;30214;52.246;14.408;2023-10-13T09:30:49;18.60;99.90
44509;DHT22;30214;52.246;14.408;2023-10-13T09:33:20;18.70;99.90
44509;DHT22;30214;52.246;14.408;2023-10-13T09:35:54;18.70;99.90
44509;DHT22;30214;52.246;14.408;2023-10-13T09:38:26;18.70;99.90
44509;DHT22;30214;52.246;14.408;2023-10-13T09:40:53;18.70;99.90
44509;DHT22;30214;52.246;14.408;2023-10-13T09:43:23;18.70;99.90
44509;DHT22;30214;52.246;14.408;2023-10-13T09:45:49;18.80;99.90
44509;DHT22;30214;52.246;14.408;2023-10-13T09:48:34;18.80;99.90
44509;DHT22;30214;52.246;14.408;2023-10-13T09:51:03;18.70;99.90
44509;DHT22;30214;52.246;14.408;2023-10-13T09:53:32;18.70;99.90
44509;DHT22;30214;52.246;14.408;2023-10-13T09:56:05;18.80;99.90
44509;DHT22;30214;52.246;14.408;2023-10-13T09:58:50;18.80;99.90
44509;DHT22;30214;52.246;14.408;2023-10-13T10:01:22;18.90;99.90
44509;DHT22;30214;52.246;14.408;2023-10-13T10:04:07;19.00;99.90
44509;DHT22;30214;52.246;14.408;2023-10-13T10:06:34;19.10;99.90
44509;DHT22;30214;52.246;14.408;2023-10-13T10:09:11;19.20;99.90
44509;DHT22;30214;52.246;14.408;2023-10-13T10:11:59;19.40;99.90
44509;DHT22;30214;52.246;14.408;2023-10-13T10:14:39;19.50;99.90
44509;DHT22;30214;52.246;14.408;2023-10-13T10:17:08;19.50;99.90
44509;DHT22;30214;52.246;14.408;2023-10-13T10:19:46;19.50;99.90
44509;DHT22;30214;52.246;14.408;2023-10-13T10:22:24;19.50;99.90
44509;DHT22;30214;52.246;14.408;2023-10-13T10:24:57;19.60;99.90
44509;DHT22;30214;52.246;14.408;2023-10-13T10:27:30;19.60;99.90
44509;DHT22;30214;52.246;14.408;2023-10-13T10:29:58;19.60;99.90
44509;DHT22;30214;52.246;14.408;2023-10-13T10:32:34;19.60;99.90
44509;DHT22;30214;52.246;14.408;2023-10-13T10:35:06;19.60;99.90
44509;DHT22;30214;52.246;14.408;2023-10-13T10:37:41;19.70;99.90
44509;DHT22;30214;52.246;14.408;2023-10-13T10:40:15;19.80;99.90
44509;DHT22;30214;52.246;14.408;2023-10-13T10:43:00;19.90;99.90
44509;DHT22;30214;52.246;14.408;2023-10-13T10:45:29;20.00;99.90
44509;DHT22;30214;52.246;14.408;2023-10-13T10:47:59;20.00;99.90
44509;DHT22;30214;52.246;14.408;2023-10-13T10:50:42;19.90;99.90
44509;DHT22;30214;52.246;14.408;2023-10-13T10:53:10;20.00;99.90
44509;DHT22;30214;52.246;14.408;2023-10-13T10:55:38;20.00;99.90
44509;DHT22;30214;52.246;14.408;2023-10-13T10:58:05;19.90;99.90
44509;DHT22;30214;52.246;14.408;2023-10-13T11:00:33;19.90;99.90
44509;DHT22;30214;52.246;14.408;2023-10-13T11:03:11;19.80;99.90
44509;DHT22;30214;52.246;14.408;2023-10-13T11:05:45;19.80;99.90
44509;DHT22;30214;52.246;14.408;2023-10-13T11:08:22;19.70;99.90
44509;DHT22;30214;52.246;14.408;2023-10-13T11:10:58;19.70;99.90
44509;DHT22;30214;52.246;14.408;2023-10-13T11:13:27;19.60;99.90
44509;DHT22;30214;52.246;14.408;2023-10-13T11:15:57;19.50;99.90
44509;DHT22;30214;52.246;14.408;2023-10-13T11:18:30;19.40;99.90
44509;DHT22;30214;52.246;14.408;2023-10-13T11:21:04;19.40;99.90
44509;DHT22;30214;52.246;14.408;2023-10-13T11:23:33;19.40;99.90
44509;DHT22;30214;52.246;14.408;2023-10-13T11:26:03;19.40;99.90
44509;DHT22;30214;52.246;14.408;2023-10-13T11:28:31;19.30;99.90
44509;DHT22;30214;52.246;14.408;2023-10-13T11:31:00;19.20;99.90
44509;DHT22;30214;52.246;14.408;2023-10-13T11:33:42;19.20;99.90
44509;DHT22;30214;52.246;14.408;2023-10-13T11:36:12;19.20;99.90
44509;DHT22;30214;52.246;14.408;2023-10-13T11:38:43;19.10;99.90
44509;DHT22;30214;52.246;14.408;2023-10-13T11:41:16;19.10;99.90
44509;DHT22;30214;52.246;14.408;2023-10-13T11:43:45;19.00;99.90
44509;DHT22;30214;52.246;14.408;2023-10-13T11:46:38;19.00;99.90
44509;DHT22;30214;52.246;14.408;2023-10-13T11:49:31;19.00;99.90
44509;DHT22;30214;52.246;14.408;2023-10-13T11:52:02;19.00;99.90
44509;DHT22;30214;52.246;14.408;2023-10-13T11:54:43;18.90;99.90
44509;DHT22;30214;52.246;14.408;2023-10-13T11:57:13;18.90;99.90
44509;DHT22;30214;52.246;14.408;2023-10-13T11:59:45;18.90;99.90
44509;DHT22;30214;52.246;14.408;2023-10-13T12:02:20;18.90;99.90
44509;DHT22;30214;52.246;14.408;2023-10-13T12:05:06;18.90;99.90
44509;DHT22;30214;52.246;14.408;2023-10-13T12:07:38;18.90;99.90
44509;DHT22;30214;52.246;14.408;2023-10-13T12:10:17;18.90;99.90
44509;DHT22;30214;52.246;14.408;2023-10-13T12:13:02;19.00;99.90
44509;DHT22;30214;52.246;14.408;2023-10-13T12:15:36;19.10;99.90
44509;DHT22;30214;52.246;14.408;2023-10-13T12:18:15;19.10;99.90
44509;DHT22;30214;52.246;14.408;2023-10-13T12:20:42;19.10;99.90
44509;DHT22;30214;52.246;14.408;2023-10-13T12:23:12;19.10;99.90
44509;DHT22;30214;52.246;14.408;2023-10-13T12:25:43;19.10;99.90
44509;DHT22;30214;52.246;14.408;2023-10-13T12:28:27;19.20;99.90
44509;DHT22;30214;52.246;14.408;2023-10-13T12:30:55;19.20;99.90
44509;DHT22;30214;52.246;14.408;2023-10-13T12:33:25;19.20;99.90
44509;DHT22;30214;52.246;14.408;2023-10-13T12:35:56;19.30;99.90
44509;DHT22;30214;52.246;14.408;2023-10-13T12:38:57;19.30;99.90
44509;DHT22;30214;52.246;14.408;2023-10-13T12:41:42;19.40;99.90
44509;DHT22;30214;52.246;14.408;2023-10-13T12:44:28;19.50;99.90
44509;DHT22;30214;52.246;14.408;2023-10-13T12:47:21;19.50;99.90
44509;DHT22;30214;52.246;14.408;2023-10-13T12:50:06;19.50;99.90
44509;DHT22;30214;52.246;14.408;2023-10-13T12:52:49;19.60;99.90
44509;DHT22;30214;52.246;14.408;2023-10-13T12:55:16;19.60;99.90
44509;DHT22;30214;52.246;14.408;2023-10-13T12:57:46;19.60;99.90
44509;DHT22;30214;52.246;14.408;2023-10-13T13:00:16;19.60;99.90
44509;DHT22;30214;52.246;14.408;2023-10-13T13:02:47;19.60;99.90
44509;DHT22;30214;52.246;14.408;2023-10-13T13:05:16;19.70;99.90
44509;DHT22;30214;52.246;14.408;2023-10-13T13:07:47;19.70;99.90
44509;DHT22;30214;52.246;14.408;2023-10-13T13:10:18;19.80;99.90
44509;DHT22;30214;52.246;14.408;2023-10-13T13:12:46;19.90;99.90
44509;DHT22;30214;52.246;14.408;2023-10-13T13:15:15;20.00;99.90
44509;DHT22;30214;52.246;14.408;2023-10-13T13:17:50;20.00;99.90
44509;DHT22;30214;52.246;14.408;2023-10-13T13:20:17;20.10;99.90
44509;DHT22;30214;52.246;14.408;2023-10-13T13:22:55;20.10;99.90
44509;DHT22;30214;52.246;14.408;2023-10-13T13:25:28;20.10;99.90
44509;DHT22;30214;52.246;14.408;2023-10-13T13:27:58;20.20;99.90
44509;DHT22;30214;52.246;14.408;2023-10-13T13:30:34;20.20;99.90
44509;DHT22;30214;52.246;14.408;2023-10-13T13:33:04;20.20;99.90
44509;DHT22;30214;52.246;14.408;2023-10-13T13:35:37;20.20;99.90
44509;DHT22;30214;52.246;14.408;2023-10-13T13:38:04;20.30;99.90
44509;DHT22;30214;52.246;14.408;2023-10-13T13:40:42;20.30;99.90
44509;DHT22;30214;52.246;14.408;2023-10-13T13:43:15;20.30;99.90
44509;DHT22;30214;52.246;14.408;2023-10-13T13:45:59;20.40;99.90
44509;DHT22;30214;52.246;14.408;2023-10-13T13:48:29;20.40;99.90
44509;DHT22;30214;52.246;14.408;2023-10-13T13:50:58;20.40;99.90
44509;DHT22;30214;52.246;14.408;2023-10-13T13:53:32;20.40;99.90
44509;DHT22;30214;52.246;14.408;2023-10-13T13:56:01;20.40;99.90
44509;DHT22;30214;52.246;14.408;2023-10-13T13:58:29;20.50;99.90
44509;DHT22;30214;52.246;14.408;2023-10-13T14:01:01;20.50;99.90
44509;DHT22;30214;52.246;14.408;2023-10-13T14:03:39;20.50;99.90
44509;DHT22;30214;52.246;14.408;2023-10-13T14:06:11;20.50;99.90
44509;DHT22;30214;52.246;14.408;2023-10-13T14:08:44;20.50;99.90
44509;DHT22;30214;52.246;14.408;2023-10-13T14:11:15;20.50;99.90
44509;DHT22;30214;52.246;14.408;2023-10-13T14:13:56;20.50;99.90
44509;DHT22;30214;52.246;14.408;2023-10-13T14:16:24;20.50;99.90
44509;DHT22;30214;52.246;14.408;2023-10-13T14:18:52;20.50;99.90
44509;DHT22;30214;52.246;14.408;2023-10-13T14:21:19;20.50;99.90
44509;DHT22;30214;52.246;14.408;2023-10-13T14:23:51;20.50;99.90
44509;DHT22;30214;52.246;14.408;2023-10-13T14:26:20;20.60;99.90
44509;DHT22;30214;52.246;14.408;2023-10-13T14:28:52;20.60;99.90
44509;DHT22;30214;52.246;14.408;2023-10-13T14:31:27;20.60;99.90
44509;DHT22;30214;52.246;14.408;2023-10-13T14:33:55;20.70;99.90
44509;DHT22;30214;52.246;14.408;2023-10-13T14:36:22;20.70;99.90
44509;DHT22;30214;52.246;14.408;2023-10-13T14:38:54;20.70;99.90
44509;DHT22;30214;52.246;14.408;2023-10-13T14:41:30;20.70;99.90
44509;DHT22;30214;52.246;14.408;2023-10-13T14:44:03;20.70;99.90
44509;DHT22;30214;52.246;14.408;2023-10-13T14:46:34;20.80;99.90
44509;DHT22;30214;52.246;14.408;2023-10-13T14:49:06;20.80;99.90
44509;DHT22;30214;52.246;14.408;2023-10-13T14:51:33;20.70;99.90
44509;DHT22;30214;52.246;14.408;2023-10-13T14:54:05;20.70;99.90
44509;DHT22;30214;52.246;14.408;2023-10-13T14:56:32;20.70;99.90
44509;DHT22;30214;52.246;14.408;2023-10-13T14:59:03;20.60;99.90
44509;DHT22;30214;52.246;14.408;2023-10-13T15:04:40;20.60;99.90
44509;DHT22;30214;52.246;14.408;2023-10-13T15:07:08;20.60;99.90
44509;DHT22;30214;52.246;14.408;2023-10-13T15:09:35;20.60;99.90
44509;DHT22;30214;52.246;14.408;2023-10-13T15:12:02;20.60;99.90
44509;DHT22;30214;52.246;14.408;2023-10-13T15:14:31;20.60;99.90
44509;DHT22;30214;52.246;14.408;2023-10-13T15:17:00;20.60;99.90
44509;DHT22;30214;52.246;14.408;2023-10-13T15:19:28;20.50;99.90
44509;DHT22;30214;52.246;14.408;2023-10-13T15:22:02;20.50;99.90
44509;DHT22;30214;52.246;14.408;2023-10-13T15:24:32;20.50;99.90
44509;DHT22;30214;52.246;14.408;2023-10-13T15:27:08;20.40;99.90
44509;DHT22;30214;52.246;14.408;2023-10-13T15:29:35;20.40;99.90
44509;DHT22;30214;52.246;14.408;2023-10-13T15:32:07;20.40;99.90
44509;DHT22;30214;52.246;14.408;2023-10-13T15:34:52;20.30;99.90
44509;DHT22;30214;52.246;14.408;2023-10-13T15:37:22;20.30;99.90
44509;DHT22;30214;52.246;14.408;2023-10-13T15:39:51;20.30;99.90
44509;DHT22;30214;52.246;14.408;2023-10-13T15:42:19;20.30;99.90
44509;DHT22;30214;52.246;14.408;2023-10-13T15:44:47;20.30;99.90
44509;DHT22;30214;52.246;14.408;2023-10-13T15:47:17;20.40;99.90
44509;DHT22;30214;52.246;14.408;2023-10-13T15:49:44;20.40;99.90
44509;DHT22;30214;52.246;14.408;2023-10-13T15:52:11;20.40;99.90
44509;DHT22;30214;52.246;14.408;2023-10-13T15:54:44;20.40;99.90
44509;DHT22;30214;52.246;14.408;2023-10-13T15:57:11;20.40;99.90
44509;DHT22;30214;52.246;14.408;2023-10-13T15:59:42;20.40;99.90
44509;DHT22;30214;52.246;14.408;2023-10-13T16:02:11;20.40;99.90
44509;DHT22;30214;52.246;14.408;2023-10-13T16:04:40;20.30;99.90